createdAt,value
2022-12-18T00:00:05.271Z,59.03
2022-12-18T00:02:57.543Z,60.73
2022-12-18T00:05:51.019Z,59.67
2022-12-18T00:08:37.538Z,59.97
2022-12-18T00:11:25.093Z,56.43
2022-12-18T00:14:13.032Z,55.37
2022-12-18T00:16:58.479Z,56.87
2022-12-18T00:19:44.877Z,54.67
2022-12-18T00:22:30.333Z,53.17
2022-12-18T00:25:16.249Z,53.60
2022-12-18T00:28:02.130Z,56.47
2022-12-18T00:30:48.034Z,57.83
2022-12-18T00:33:33.716Z,58.10
2022-12-18T00:36:21.977Z,52.73
2022-12-18T00:39:07.753Z,53.17
2022-12-18T00:41:53.289Z,50.67
2022-12-18T00:44:39.262Z,50.57
2022-12-18T00:47:24.891Z,50.27
2022-12-18T00:50:10.754Z,50.63
2022-12-18T01:00:17.964Z,49.43
2022-12-18T01:03:14.339Z,45.37
2022-12-18T01:06:12.835Z,43.03
2022-12-18T01:08:58.743Z,41.07
2022-12-18T01:11:44.528Z,40.63
2022-12-18T01:14:30.286Z,47.03
2022-12-18T01:17:15.852Z,47.83
2022-12-18T01:20:02.095Z,49.33
2022-12-18T01:22:47.245Z,41.93
2022-12-18T01:25:34.345Z,41.90
2022-12-18T01:28:20.072Z,43.07
2022-12-18T01:31:27.485Z,44.20
2022-12-18T01:34:13.562Z,43.90
2022-12-18T01:36:59.000Z,43.57
2022-12-18T01:39:45.166Z,43.43
2022-12-18T01:42:30.173Z,42.80
2022-12-18T01:45:15.499Z,40.77
2022-12-18T01:48:04.310Z,38.50
2022-12-18T01:50:49.566Z,43.53
2022-12-18T01:53:37.132Z,45.93
2022-12-18T01:56:23.284Z,43.73
2022-12-18T01:59:49.464Z,40.83
2022-12-18T02:02:45.506Z,38.27
2022-12-18T02:06:06.569Z,38.50
2022-12-18T02:09:07.860Z,35.37
2022-12-18T02:11:53.357Z,34.80
2022-12-18T02:14:53.339Z,35.50
2022-12-18T02:17:55.463Z,35.13
2022-12-18T02:20:48.685Z,29.03
2022-12-18T02:23:52.824Z,31.67
2022-12-18T02:26:47.836Z,36.20
2022-12-18T02:29:58.478Z,34.23
2022-12-18T02:32:51.218Z,34.13
2022-12-18T02:35:39.684Z,32.73
2022-12-18T02:38:26.718Z,33.17
2022-12-18T02:41:14.084Z,32.73
2022-12-18T02:44:09.947Z,32.03
2022-12-18T02:46:55.520Z,33.30
2022-12-18T02:50:06.452Z,33.70
2022-12-18T02:53:20.184Z,27.70
2022-12-18T02:56:16.520Z,31.13
2022-12-18T02:59:14.303Z,30.27
2022-12-18T03:02:24.850Z,31.73
2022-12-18T03:05:42.108Z,31.17
2022-12-18T03:08:32.794Z,32.97
2022-12-18T03:11:18.178Z,33.03
2022-12-18T03:14:06.627Z,32.13
2022-12-18T03:16:56.168Z,31.83
2022-12-18T03:19:43.936Z,29.43
2022-12-18T03:22:33.072Z,25.93
2022-12-18T03:25:20.132Z,30.43
2022-12-18T03:28:09.484Z,23.77
2022-12-18T03:30:59.492Z,21.77
2022-12-18T03:33:53.332Z,20.33
2022-12-18T03:36:38.491Z,21.77
2022-12-18T03:39:23.780Z,22.00
2022-12-18T03:42:21.624Z,20.53
2022-12-18T03:45:35.296Z,21.20
2022-12-18T03:48:30.468Z,29.33
2022-12-18T03:51:26.402Z,25.03
2022-12-18T03:54:13.224Z,23.10
2022-12-18T03:57:05.659Z,22.37
2022-12-18T03:59:57.091Z,24.00
2022-12-18T04:02:47.278Z,24.23
2022-12-18T04:05:35.452Z,21.80
2022-12-18T04:08:21.652Z,19.77
2022-12-18T04:11:07.998Z,20.60
2022-12-18T04:13:58.248Z,20.63
2022-12-18T04:16:43.952Z,20.90
2022-12-18T04:19:29.388Z,22.17
2022-12-18T04:22:14.736Z,19.60
2022-12-18T04:25:00.163Z,20.77
2022-12-18T04:27:45.777Z,20.03
2022-12-18T04:30:31.015Z,20.80
2022-12-18T04:33:19.632Z,21.53
2022-12-18T04:36:05.963Z,17.47
2022-12-18T04:38:51.393Z,16.33
2022-12-18T04:41:36.861Z,17.33
2022-12-18T04:44:22.065Z,16.23
2022-12-18T04:47:07.353Z,15.80
2022-12-18T04:49:52.669Z,14.40
2022-12-18T04:52:37.838Z,13.30
2022-12-18T04:55:26.568Z,14.47
2022-12-18T04:58:11.779Z,13.47
2022-12-18T05:00:57.052Z,12.10
2022-12-18T05:03:42.708Z,10.93
2022-12-18T05:06:28.562Z,10.40
2022-12-18T05:09:14.063Z,9.90
2022-12-18T05:11:59.689Z,10.43
2022-12-18T05:14:44.955Z,9.83
2022-12-18T05:17:30.244Z,8.97
2022-12-18T05:20:15.465Z,9.37
2022-12-18T05:23:00.652Z,9.00
2022-12-18T05:25:55.140Z,9.30
2022-12-18T05:28:40.733Z,9.60
2022-12-18T05:31:25.997Z,8.80
2022-12-18T05:34:11.199Z,9.00
2022-12-18T05:36:56.796Z,8.67
2022-12-18T05:39:43.848Z,9.17
2022-12-18T05:42:29.184Z,10.47
2022-12-18T05:45:14.395Z,9.80
2022-12-18T05:47:59.657Z,11.23
2022-12-18T05:50:46.235Z,11.13
2022-12-18T05:53:31.665Z,10.73
2022-12-18T05:56:20.217Z,10.23
2022-12-18T05:59:05.520Z,10.00
2022-12-18T06:01:50.935Z,10.10
2022-12-18T06:04:36.130Z,9.20
2022-12-18T06:07:21.522Z,10.23
2022-12-18T06:10:07.264Z,10.80
2022-12-18T06:12:52.314Z,10.97
2022-12-18T06:15:38.565Z,10.97
2022-12-18T06:18:24.123Z,10.17
2022-12-18T06:21:09.244Z,10.43
2022-12-18T06:23:54.746Z,11.17
2022-12-18T06:26:40.646Z,11.17
2022-12-18T06:29:26.634Z,11.20
2022-12-18T06:32:15.989Z,11.33
2022-12-18T06:35:04.825Z,10.97
2022-12-18T06:37:50.384Z,11.23
2022-12-18T06:40:38.964Z,11.20
2022-12-18T06:43:24.630Z,11.13
2022-12-18T06:46:11.318Z,11.60
2022-12-18T06:48:58.205Z,11.43
2022-12-18T06:51:43.567Z,12.03
2022-12-18T06:54:29.007Z,11.53
2022-12-18T06:57:15.015Z,12.23
2022-12-18T07:00:00.941Z,11.40
2022-12-18T07:02:46.326Z,11.43
2022-12-18T07:05:31.876Z,11.73
2022-12-18T07:08:17.434Z,11.53
2022-12-18T07:11:05.236Z,11.50
2022-12-18T07:13:51.031Z,12.03
2022-12-18T07:16:36.201Z,12.00
2022-12-18T07:19:25.139Z,12.00
2022-12-18T07:22:10.564Z,11.33
2022-12-18T07:24:55.910Z,12.23
2022-12-18T07:27:41.453Z,11.43
2022-12-18T07:30:26.644Z,13.67
2022-12-18T07:33:12.009Z,15.13
2022-12-18T07:35:57.160Z,13.93
2022-12-18T07:38:43.529Z,12.57
2022-12-18T07:41:29.149Z,12.10
2022-12-18T07:44:14.788Z,11.70
2022-12-18T07:47:00.397Z,11.93
2022-12-18T07:52:50.515Z,11.57
2022-12-18T07:56:17.812Z,12.23
2022-12-18T07:58:49.512Z,11.63
2022-12-18T08:01:35.127Z,11.70
2022-12-18T08:04:20.957Z,11.47
2022-12-18T08:07:06.532Z,11.07
2022-12-18T08:09:51.759Z,11.83
2022-12-18T08:12:37.156Z,10.90
2022-12-18T08:15:22.367Z,10.57
2022-12-18T08:21:15.612Z,11.30
2022-12-18T08:24:03.316Z,10.90
2022-12-18T08:29:47.716Z,11.27
2022-12-18T08:32:33.597Z,11.33
2022-12-18T08:35:18.917Z,11.20
2022-12-18T08:38:04.924Z,11.63
2022-12-18T08:40:50.510Z,11.53
2022-12-18T08:43:36.042Z,11.27
2022-12-18T08:46:32.680Z,11.70
2022-12-18T08:49:18.038Z,11.67
2022-12-18T08:52:04.037Z,11.30
2022-12-18T08:57:57.069Z,12.37
2022-12-18T09:00:44.549Z,12.37
2022-12-18T09:03:31.219Z,11.30
2022-12-18T09:09:19.358Z,12.07
2022-12-18T09:15:08.757Z,12.80
2022-12-18T09:24:27.646Z,31.83
2022-12-18T09:27:15.640Z,25.77
2022-12-18T09:30:01.408Z,11.83
2022-12-18T09:35:47.418Z,12.60
2022-12-18T09:38:33.136Z,12.40
2022-12-18T09:41:34.863Z,11.23
2022-12-18T09:44:52.902Z,13.30
2022-12-18T09:47:40.262Z,13.63
2022-12-18T09:50:33.020Z,12.10
2022-12-18T09:53:26.145Z,16.47
2022-12-18T09:56:19.903Z,16.73
2022-12-18T09:59:06.496Z,20.87
2022-12-18T10:01:52.532Z,17.43
2022-12-18T10:04:38.284Z,20.40
2022-12-18T10:07:49.064Z,18.27
2022-12-18T10:11:04.424Z,14.30
2022-12-18T10:13:57.127Z,12.60
2022-12-18T10:16:57.489Z,12.60
2022-12-18T10:19:48.455Z,11.03
2022-12-18T10:22:43.171Z,12.40
2022-12-18T10:26:05.092Z,12.00
2022-12-18T10:28:51.695Z,11.47
2022-12-18T10:31:38.750Z,11.13
2022-12-18T10:34:24.897Z,9.40
2022-12-18T10:37:18.024Z,10.40
2022-12-18T10:40:21.544Z,10.47
2022-12-18T10:43:16.175Z,9.90
2022-12-18T10:46:22.256Z,10.47
2022-12-18T10:49:20.505Z,10.33
2022-12-18T10:52:21.508Z,9.53
2022-12-18T10:55:18.541Z,9.97
2022-12-18T10:58:28.787Z,10.10
2022-12-18T11:01:49.817Z,10.17
2022-12-18T11:04:35.884Z,9.97
2022-12-18T11:07:21.624Z,9.37
2022-12-18T11:10:20.539Z,9.67
2022-12-18T11:13:21.656Z,9.37
2022-12-18T11:16:07.465Z,9.23
2022-12-18T11:18:53.139Z,9.43
2022-12-18T11:21:43.451Z,9.43
2022-12-18T11:24:34.653Z,9.27
2022-12-18T11:27:20.766Z,9.80
2022-12-18T11:30:15.461Z,9.40
2022-12-18T11:33:21.243Z,9.00
2022-12-18T11:36:11.381Z,9.50
2022-12-18T11:39:00.930Z,8.20
2022-12-18T11:42:22.633Z,9.27
2022-12-18T11:45:20.049Z,8.20
2022-12-18T11:48:28.636Z,8.43
2022-12-18T11:51:28.180Z,8.10
2022-12-18T11:54:15.134Z,50.97
2022-12-18T11:57:11.206Z,11.37
2022-12-18T12:00:11.815Z,7.50
2022-12-18T12:03:23.177Z,8.33
2022-12-18T12:06:09.030Z,8.67
2022-12-18T12:09:18.193Z,9.10
2022-12-18T12:12:32.931Z,7.37
2022-12-18T12:15:49.865Z,8.03
2022-12-18T12:19:02.793Z,7.77
2022-12-18T12:22:14.579Z,8.37
2022-12-18T12:25:21.419Z,7.93
2022-12-18T12:28:19.666Z,7.83
2022-12-18T12:31:24.562Z,7.80
2022-12-18T12:34:18.003Z,7.33
2022-12-18T12:37:23.993Z,7.50
2022-12-18T12:40:51.335Z,7.73
2022-12-18T12:43:43.331Z,8.17
2022-12-18T12:46:42.482Z,8.40
2022-12-18T12:49:37.544Z,9.10
2022-12-18T12:52:40.964Z,8.60
2022-12-18T12:55:29.244Z,7.97
2022-12-18T12:58:52.335Z,8.50
2022-12-18T13:01:58.347Z,7.77
2022-12-18T13:04:53.363Z,7.97
2022-12-18T13:07:51.160Z,7.80
2022-12-18T13:10:42.483Z,7.43
2022-12-18T13:13:54.805Z,7.77
2022-12-18T13:16:40.739Z,7.63
2022-12-18T13:19:27.727Z,7.67
2022-12-18T13:22:51.060Z,9.07
2022-12-18T13:25:38.938Z,7.90
2022-12-18T13:28:45.245Z,7.60
2022-12-18T13:31:40.656Z,7.63
2022-12-18T13:34:29.764Z,7.67
2022-12-18T13:37:43.729Z,8.00
2022-12-18T13:40:57.051Z,8.10
2022-12-18T13:43:47.495Z,7.63
2022-12-18T13:46:48.139Z,6.67
2022-12-18T13:49:44.524Z,7.30
2022-12-18T13:52:37.371Z,6.90
2022-12-18T13:55:23.859Z,6.90
2022-12-18T13:58:13.406Z,7.70
2022-12-18T14:01:04.985Z,7.20
2022-12-18T14:03:50.423Z,7.03
2022-12-18T14:06:36.904Z,8.80
2022-12-18T14:09:29.292Z,7.80
2022-12-18T14:12:22.859Z,7.57
2022-12-18T14:15:24.239Z,7.47
2022-12-18T14:46:35.743Z,7.80
2022-12-18T14:49:30.252Z,6.37
2022-12-18T14:52:29.042Z,6.63
2022-12-18T14:55:19.368Z,7.27
2022-12-18T14:58:05.846Z,6.70
2022-12-18T15:00:55.911Z,6.60
2022-12-18T15:03:44.977Z,7.53
2022-12-18T15:06:32.034Z,10.50
2022-12-18T15:09:26.450Z,8.93
2022-12-18T15:12:29.649Z,7.70
2022-12-18T15:15:33.977Z,8.17
2022-12-18T15:18:23.881Z,7.37
2022-12-18T15:21:19.585Z,7.43
2022-12-18T15:24:28.279Z,7.70
2022-12-18T15:27:49.515Z,8.17
2022-12-18T15:30:38.490Z,8.23
2022-12-18T15:33:31.586Z,7.97
2022-12-18T15:40:14.986Z,9.20
2022-12-18T15:46:34.618Z,9.33
2022-12-18T15:49:45.476Z,10.07
2022-12-18T15:53:03.892Z,9.10
2022-12-18T15:56:02.023Z,9.70
2022-12-18T15:59:14.556Z,9.30
2022-12-18T16:05:38.309Z,9.10
2022-12-18T16:08:25.905Z,9.97
2022-12-18T16:11:25.600Z,10.70
2022-12-18T16:18:02.841Z,10.13
2022-12-18T16:20:50.420Z,10.40
2022-12-18T16:23:49.012Z,10.93
2022-12-18T16:26:44.313Z,11.13
2022-12-18T16:29:30.664Z,12.07
2022-12-18T16:32:19.442Z,11.37
2022-12-18T16:35:05.617Z,12.90
2022-12-18T16:37:50.978Z,12.20
2022-12-18T16:40:36.900Z,13.47
2022-12-18T16:43:27.954Z,13.03
2022-12-18T16:46:16.878Z,12.70
2022-12-18T16:49:04.658Z,13.10
2022-12-18T16:51:50.177Z,12.60
2022-12-18T16:54:54.097Z,12.83
2022-12-18T16:57:40.485Z,12.77
2022-12-18T17:00:25.877Z,13.40
2022-12-18T17:03:11.438Z,12.67
2022-12-18T17:06:03.971Z,17.03
2022-12-18T17:08:55.897Z,12.90
2022-12-18T17:11:41.744Z,13.80
2022-12-18T17:14:27.565Z,14.10
2022-12-18T17:17:21.866Z,14.23
2022-12-18T17:20:09.223Z,14.97
2022-12-18T17:22:54.820Z,17.30
2022-12-18T17:25:41.755Z,14.40
2022-12-18T17:28:28.812Z,14.93
2022-12-18T17:31:17.574Z,14.63
2022-12-18T17:34:04.371Z,14.77
2022-12-18T17:36:53.437Z,16.60
2022-12-18T17:39:40.568Z,16.30
2022-12-18T17:42:26.445Z,16.87
2022-12-18T17:45:12.521Z,18.00
2022-12-18T17:48:01.771Z,18.20
2022-12-18T17:50:49.487Z,19.17
2022-12-18T17:53:37.609Z,19.17
2022-12-18T17:56:30.158Z,19.60
2022-12-18T17:59:17.503Z,19.23
2022-12-18T18:02:15.492Z,19.70
2022-12-18T18:05:07.792Z,22.00
2022-12-18T18:07:57.130Z,19.83
2022-12-18T18:10:42.788Z,20.63
2022-12-18T18:13:33.317Z,21.87
2022-12-18T18:16:22.425Z,21.17
2022-12-18T18:19:15.342Z,20.93
2022-12-18T18:22:01.287Z,21.33
2022-12-18T18:24:46.923Z,20.40
2022-12-18T18:27:38.235Z,21.37
2022-12-18T18:30:24.165Z,21.30
2022-12-18T18:33:11.972Z,23.67
2022-12-18T18:35:58.373Z,22.57
2022-12-18T18:38:48.199Z,20.30
2022-12-18T18:41:34.506Z,23.37
2022-12-18T18:44:21.933Z,22.50
2022-12-18T18:47:11.444Z,22.47
2022-12-18T18:49:59.171Z,23.33
2022-12-18T18:52:44.688Z,23.63
2022-12-18T18:55:33.706Z,23.70
2022-12-18T18:58:19.915Z,23.23
2022-12-18T19:01:09.680Z,25.10
2022-12-18T19:03:55.411Z,23.23
2022-12-18T19:06:40.763Z,24.33
2022-12-18T19:09:32.672Z,23.60
2022-12-18T19:12:28.034Z,23.87
2022-12-18T19:15:13.728Z,23.27
2022-12-18T19:18:00.225Z,24.40
2022-12-18T19:20:55.082Z,24.27
2022-12-18T19:23:41.375Z,23.97
2022-12-18T19:26:30.997Z,24.00
2022-12-18T19:29:19.970Z,24.43
2022-12-18T19:32:05.870Z,23.17
2022-12-18T19:35:11.726Z,23.90
2022-12-18T19:37:59.005Z,24.03
2022-12-18T19:40:45.014Z,24.40
2022-12-18T19:43:30.368Z,25.13
2022-12-18T19:46:23.009Z,25.20
2022-12-18T19:49:08.742Z,24.50
2022-12-18T19:51:56.725Z,26.73
2022-12-18T19:54:42.672Z,27.17
2022-12-18T19:57:29.755Z,26.30
2022-12-18T20:00:18.836Z,26.43
2022-12-18T20:03:16.018Z,24.77
2022-12-18T20:06:18.909Z,24.43
2022-12-18T20:09:06.539Z,24.20
2022-12-18T20:11:58.080Z,26.13
2022-12-18T20:14:55.948Z,24.43
2022-12-18T20:17:41.351Z,26.57
2022-12-18T20:20:27.064Z,25.23
2022-12-18T20:23:12.715Z,24.70
2022-12-18T20:26:00.321Z,27.93
2022-12-18T20:28:45.966Z,25.57
2022-12-18T20:31:34.740Z,26.23
2022-12-18T20:34:20.176Z,26.70
2022-12-18T20:37:05.878Z,25.80
2022-12-18T20:39:51.077Z,25.77
2022-12-18T20:42:37.585Z,25.93
2022-12-18T20:45:23.062Z,25.67
2022-12-18T20:48:08.342Z,25.97
2022-12-18T20:51:07.747Z,26.27
2022-12-18T20:54:08.010Z,26.60
2022-12-18T20:56:57.032Z,26.17
2022-12-18T20:59:47.984Z,26.40
2022-12-18T21:02:34.162Z,26.17
2022-12-18T21:05:19.502Z,27.57
2022-12-18T21:08:05.345Z,26.23
2022-12-18T21:10:50.804Z,25.53
2022-12-18T21:13:36.038Z,28.27
2022-12-18T21:16:21.291Z,26.20
2022-12-18T21:19:07.146Z,27.07
2022-12-18T21:21:54.274Z,26.67
2022-12-18T21:24:40.234Z,26.37
2022-12-18T21:27:28.158Z,26.77
2022-12-18T21:30:14.000Z,27.13
2022-12-18T21:33:03.674Z,26.97
2022-12-18T21:35:49.555Z,26.43
2022-12-18T21:38:39.202Z,27.17
2022-12-18T21:41:26.322Z,32.83
2022-12-18T21:44:15.262Z,26.77
2022-12-18T21:47:10.818Z,26.63
2022-12-18T21:50:06.639Z,26.07
2022-12-18T21:52:54.175Z,25.73
2022-12-18T21:55:39.986Z,26.13
2022-12-18T21:58:25.885Z,26.43
2022-12-18T22:01:11.201Z,27.53
2022-12-18T22:04:00.393Z,26.80
2022-12-18T22:06:48.984Z,28.00
2022-12-18T22:09:38.833Z,27.20
2022-12-18T22:12:26.960Z,27.43
2022-12-18T22:15:19.196Z,27.90
2022-12-18T22:18:10.013Z,26.53
2022-12-18T22:21:07.237Z,27.63
2022-12-18T22:24:03.868Z,26.80
2022-12-18T22:26:52.342Z,27.00
2022-12-18T22:29:41.817Z,26.43
2022-12-18T22:32:31.754Z,27.43
2022-12-18T22:35:24.669Z,28.00
2022-12-18T22:38:11.528Z,26.67
2022-12-18T22:41:00.096Z,26.40
2022-12-18T22:43:45.884Z,27.77
2022-12-18T22:46:37.671Z,28.50
2022-12-18T22:49:25.342Z,28.70
2022-12-18T22:52:10.648Z,28.13
2022-12-18T22:54:55.856Z,27.90
2022-12-18T22:57:46.502Z,30.17
2022-12-18T23:00:34.748Z,27.87
2022-12-18T23:03:19.933Z,28.30
2022-12-18T23:06:06.994Z,29.27
2022-12-18T23:08:56.826Z,30.00
2022-12-18T23:11:43.372Z,29.87
2022-12-18T23:14:31.565Z,29.03
2022-12-18T23:17:16.702Z,30.17
2022-12-18T23:20:02.080Z,29.40
2022-12-18T23:22:47.291Z,29.13
2022-12-18T23:25:32.899Z,28.77
2022-12-18T23:28:18.258Z,29.93
2022-12-18T23:31:28.108Z,29.37
2022-12-18T23:34:14.618Z,30.30
2022-12-18T23:37:00.253Z,29.07
2022-12-18T23:39:45.634Z,29.67
2022-12-18T23:42:31.069Z,31.40
2022-12-18T23:45:17.923Z,31.37
2022-12-18T23:48:03.926Z,31.90
2022-12-18T23:50:49.407Z,30.23
2022-12-18T23:53:35.779Z,31.37
2022-12-18T23:56:22.618Z,31.70
2022-12-18T23:59:08.015Z,31.90
